Главная страница
METAR-TAF:

METAR-TAF

Аэропорты :

William H. Morse State Airport

Bennington, Вермонт, США

широта: 42-53-24N, долгота: 073-14-47W, высота над уровнем моря: 252 м

Текущие метеонаблюдения

Эта сводка был подготовлена 1 час и 6 минут назад, в 09:54 UTC
Штиль
Температура 12°C
Влажность 94%
Давление 1027 hPa
Видимость: 16.1 км
Отдельные облака на высоте 6000 фута

METAR: KDDH 250954Z AUTO 00000KT 10SM SCT060 12/11 A3032 RMK AO2 SLP264 T01220106

Время: 07:00 (11:00 UTC)


TAF: отсутствует

Метеонаблюдения и прогнозы для более 4000 аэропортов (сводки METAR и TAF).

Имеющиеся станции представлены на карте желтыми и красными точками.

Чтобы увидеть название станции, наведите на нее мышь.

Затем щелкните, чтобы увидеть метеонаблюдения и метеопрогнозы.

Управление картой: чтобы увеличить масштаб, щелкните зеленые кнопки с черным крестиком; чтобы уменьшить масштаб, щелкните зеленую кнопку с тире; для просмотра соседних карт щелкайте зеленые стрелки.


METAR-TAF: